sensor_id;sensor_type;location;lat;lon;timestamp;pressure;altitude;pressure_sealevel;temperature;humidity
2294;BME280;1155;42.644;23.264;2023-05-24T00:02:46;60159.00;;;-140.67;100.00
2294;BME280;1155;42.644;23.264;2023-05-24T00:05:43;60154.91;;;-140.67;100.00
2294;BME280;1155;42.644;23.264;2023-05-24T00:08:52;60144.66;;;-140.67;100.00
2294;BME280;1155;42.644;23.264;2023-05-24T00:11:34;60136.47;;;-140.67;100.00
2294;BME280;1155;42.644;23.264;2023-05-24T00:14:23;60154.91;;;-140.67;100.00
2294;BME280;1155;42.644;23.264;2023-05-24T00:16:56;60167.19;;;-140.67;100.00
2294;BME280;1155;42.644;23.264;2023-05-24T00:19:54;60150.81;;;-140.67;100.00
2294;BME280;1155;42.644;23.264;2023-05-24T00:22:50;60159.00;;;-140.67;100.00
2294;BME280;1155;42.644;23.264;2023-05-24T00:25:37;60150.81;;;-140.67;100.00
2294;BME280;1155;42.644;23.264;2023-05-24T00:28:29;60159.00;;;-140.67;100.00
2294;BME280;1155;42.644;23.264;2023-05-24T00:31:12;60185.59;;;-140.67;100.00
2294;BME280;1155;42.644;23.264;2023-05-24T00:33:49;60163.09;;;-140.67;100.00
2294;BME280;1155;42.644;23.264;2023-05-24T00:36:30;60171.28;;;-140.67;100.00
2294;BME280;1155;42.644;23.264;2023-05-24T00:39:03;60150.81;;;-140.67;100.00
2294;BME280;1155;42.644;23.264;2023-05-24T00:41:56;60159.00;;;-140.67;100.00
2294;BME280;1155;42.644;23.264;2023-05-24T00:44:47;60154.91;;;-140.67;100.00
2294;BME280;1155;42.644;23.264;2023-05-24T00:47:51;60150.81;;;-140.67;100.00
2294;BME280;1155;42.644;23.264;2023-05-24T00:50:45;60124.19;;;-140.67;100.00
2294;BME280;1155;42.644;23.264;2023-05-24T00:53:19;60136.47;;;-140.67;100.00
2294;BME280;1155;42.644;23.264;2023-05-24T00:59:11;60159.00;;;-140.67;100.00
2294;BME280;1155;42.644;23.264;2023-05-24T01:04:58;60156.94;;;-140.67;100.00
2294;BME280;1155;42.644;23.264;2023-05-24T01:07:42;60148.75;;;-140.67;100.00
2294;BME280;1155;42.644;23.264;2023-05-24T01:10:31;60159.00;;;-140.67;100.00
2294;BME280;1155;42.644;23.264;2023-05-24T01:13:42;60156.94;;;-140.67;100.00
2294;BME280;1155;42.644;23.264;2023-05-24T01:16:50;60163.09;;;-140.67;100.00
2294;BME280;1155;42.644;23.264;2023-05-24T01:19:51;60140.56;;;-140.67;100.00
2294;BME280;1155;42.644;23.264;2023-05-24T01:23:18;60150.81;;;-140.67;100.00
2294;BME280;1155;42.644;23.264;2023-05-24T01:26:12;60163.09;;;-140.67;100.00
2294;BME280;1155;42.644;23.264;2023-05-24T01:29:09;60163.09;;;-140.67;100.00
2294;BME280;1155;42.644;23.264;2023-05-24T01:32:10;60163.09;;;-140.67;100.00
2294;BME280;1155;42.644;23.264;2023-05-24T01:34:50;60136.47;;;-140.67;100.00
2294;BME280;1155;42.644;23.264;2023-05-24T01:37:46;60193.81;;;-140.67;100.00
2294;BME280;1155;42.644;23.264;2023-05-24T01:40:26;60167.19;;;-140.67;100.00
2294;BME280;1155;42.644;23.264;2023-05-24T01:43:23;60146.72;;;-140.67;100.00
2294;BME280;1155;42.644;23.264;2023-05-24T01:46:33;60134.41;;;-140.67;100.00
2294;BME280;1155;42.644;23.264;2023-05-24T01:49:25;60163.09;;;-140.67;100.00
2294;BME280;1155;42.644;23.264;2023-05-24T01:52:26;60154.91;;;-140.67;100.00
2294;BME280;1155;42.644;23.264;2023-05-24T01:55:26;60167.19;;;-140.67;100.00
2294;BME280;1155;42.644;23.264;2023-05-24T01:58:08;60154.91;;;-140.67;100.00
2294;BME280;1155;42.644;23.264;2023-05-24T02:01:12;60146.72;;;-140.67;100.00
2294;BME280;1155;42.644;23.264;2023-05-24T02:04:15;60163.09;;;-140.67;100.00
2294;BME280;1155;42.644;23.264;2023-05-24T02:07:02;60187.66;;;-140.67;100.00
2294;BME280;1155;42.644;23.264;2023-05-24T02:09:41;60171.28;;;-140.67;100.00
2294;BME280;1155;42.644;23.264;2023-05-24T02:12:26;60120.09;;;-140.67;100.00
2294;BME280;1155;42.644;23.264;2023-05-24T02:15:10;60146.72;;;-140.67;100.00
2294;BME280;1155;42.644;23.264;2023-05-24T02:17:48;60134.41;;;-140.67;100.00
2294;BME280;1155;42.644;23.264;2023-05-24T02:20:25;60150.81;;;-140.67;100.00
2294;BME280;1155;42.644;23.264;2023-05-24T02:23:30;60167.19;;;-140.67;100.00
2294;BME280;1155;42.644;23.264;2023-05-24T02:26:06;60156.94;;;-140.67;100.00
2294;BME280;1155;42.644;23.264;2023-05-24T02:28:45;60161.03;;;-140.67;100.00
2294;BME280;1155;42.644;23.264;2023-05-24T02:34:44;60163.09;;;-140.67;100.00
2294;BME280;1155;42.644;23.264;2023-05-24T02:40:41;60165.13;;;-140.67;100.00
2294;BME280;1155;42.644;23.264;2023-05-24T02:43:56;60126.22;;;-140.67;100.00
2294;BME280;1155;42.644;23.264;2023-05-24T02:46:48;60136.47;;;-140.67;100.00
2294;BME280;1155;42.644;23.264;2023-05-24T02:49:31;60171.28;;;-140.67;100.00
2294;BME280;1155;42.644;23.264;2023-05-24T02:52:08;60130.31;;;-140.67;100.00
2294;BME280;1155;42.644;23.264;2023-05-24T02:55:14;60144.66;;;-140.67;100.00
2294;BME280;1155;42.644;23.264;2023-05-24T02:58:20;60171.28;;;-140.67;100.00
2294;BME280;1155;42.644;23.264;2023-05-24T03:01:02;60159.00;;;-140.67;100.00
2294;BME280;1155;42.644;23.264;2023-05-24T03:03:39;60171.28;;;-140.67;100.00
2294;BME280;1155;42.644;23.264;2023-05-24T03:06:22;60148.75;;;-140.67;100.00
2294;BME280;1155;42.644;23.264;2023-05-24T03:08:53;60159.00;;;-140.67;100.00
2294;BME280;1155;42.644;23.264;2023-05-24T03:12:04;60128.28;;;-140.67;100.00
2294;BME280;1155;42.644;23.264;2023-05-24T03:14:57;60154.91;;;-140.67;100.00
2294;BME280;1155;42.644;23.264;2023-05-24T03:17:49;60142.59;;;-140.67;100.00
2294;BME280;1155;42.644;23.264;2023-05-24T03:20:51;60159.00;;;-140.67;100.00
2294;BME280;1155;42.644;23.264;2023-05-24T03:23:50;60179.47;;;-140.67;100.00
2294;BME280;1155;42.644;23.264;2023-05-24T03:26:55;60179.47;;;-140.67;100.00
2294;BME280;1155;42.644;23.264;2023-05-24T03:30:04;60150.81;;;-140.67;100.00
2294;BME280;1155;42.644;23.264;2023-05-24T03:32:50;60134.41;;;-140.67;100.00
2294;BME280;1155;42.644;23.264;2023-05-24T03:38:39;60138.50;;;-140.67;100.00
2294;BME280;1155;42.644;23.264;2023-05-24T03:45:16;60171.28;;;-140.67;100.00
2294;BME280;1155;42.644;23.264;2023-05-24T03:48:01;60159.00;;;-140.67;100.00
2294;BME280;1155;42.644;23.264;2023-05-24T03:53:46;60167.19;;;-140.67;100.00
2294;BME280;1155;42.644;23.264;2023-05-24T03:56:29;60161.03;;;-140.67;100.00
2294;BME280;1155;42.644;23.264;2023-05-24T03:59:34;60171.28;;;-140.67;100.00
2294;BME280;1155;42.644;23.264;2023-05-24T04:02:29;60179.47;;;-140.67;100.00
2294;BME280;1155;42.644;23.264;2023-05-24T04:08:13;60150.81;;;-140.67;100.00
2294;BME280;1155;42.644;23.264;2023-05-24T04:10:56;60171.28;;;-140.67;100.00
2294;BME280;1155;42.644;23.264;2023-05-24T04:13:40;60167.19;;;-140.67;100.00
2294;BME280;1155;42.644;23.264;2023-05-24T04:16:35;60154.91;;;-140.67;100.00
2294;BME280;1155;42.644;23.264;2023-05-24T04:19:20;60150.81;;;-140.67;100.00
2294;BME280;1155;42.644;23.264;2023-05-24T04:22:02;60167.19;;;-140.67;100.00
2294;BME280;1155;42.644;23.264;2023-05-24T04:24:31;60183.56;;;-140.67;100.00
2294;BME280;1155;42.644;23.264;2023-05-24T04:27:06;60185.59;;;-140.67;100.00
2294;BME280;1155;42.644;23.264;2023-05-24T04:29:37;60204.03;;;-140.67;100.00
2294;BME280;1155;42.644;23.264;2023-05-24T04:32:05;60187.66;;;-140.67;100.00
2294;BME280;1155;42.644;23.264;2023-05-24T04:34:40;60179.47;;;-140.67;100.00
2294;BME280;1155;42.644;23.264;2023-05-24T04:37:12;60159.00;;;-140.67;100.00
2294;BME280;1155;42.644;23.264;2023-05-24T04:39:46;60181.50;;;-140.67;100.00
2294;BME280;1155;42.644;23.264;2023-05-24T04:42:14;60156.94;;;-140.67;100.00
2294;BME280;1155;42.644;23.264;2023-05-24T04:44:46;60159.00;;;-140.67;100.00
2294;BME280;1155;42.644;23.264;2023-05-24T04:47:13;60173.31;;;-140.67;100.00
2294;BME280;1155;42.644;23.264;2023-05-24T04:49:45;60187.66;;;-140.67;100.00
2294;BME280;1155;42.644;23.264;2023-05-24T04:52:19;60159.00;;;-140.67;100.00
2294;BME280;1155;42.644;23.264;2023-05-24T04:54:48;60183.56;;;-140.67;100.00
2294;BME280;1155;42.644;23.264;2023-05-24T04:57:26;60161.03;;;-140.67;100.00
2294;BME280;1155;42.644;23.264;2023-05-24T05:00:05;60202.00;;;-140.67;100.00
2294;BME280;1155;42.644;23.264;2023-05-24T05:02:42;60191.75;;;-140.67;100.00
2294;BME280;1155;42.644;23.264;2023-05-24T05:05:22;60175.38;;;-140.67;100.00
2294;BME280;1155;42.644;23.264;2023-05-24T05:07:59;60199.94;;;-140.67;100.00
2294;BME280;1155;42.644;23.264;2023-05-24T05:10:34;60199.94;;;-140.67;100.00
2294;BME280;1155;42.644;23.264;2023-05-24T05:13:14;60191.75;;;-140.67;100.00
2294;BME280;1155;42.644;23.264;2023-05-24T05:15:49;60195.84;;;-140.67;100.00
2294;BME280;1155;42.644;23.264;2023-05-24T05:18:45;60206.09;;;-140.67;100.00
2294;BME280;1155;42.644;23.264;2023-05-24T05:21:31;60191.75;;;-140.67;100.00
2294;BME280;1155;42.644;23.264;2023-05-24T05:24:10;60193.81;;;-140.67;100.00
2294;BME280;1155;42.644;23.264;2023-05-24T05:26:39;60195.84;;;-140.67;100.00
2294;BME280;1155;42.644;23.264;2023-05-24T05:29:14;60167.19;;;-140.67;100.00
2294;BME280;1155;42.644;23.264;2023-05-24T05:31:56;60193.81;;;-140.67;100.00
2294;BME280;1155;42.644;23.264;2023-05-24T05:34:45;60197.91;;;-140.67;100.00
2294;BME280;1155;42.644;23.264;2023-05-24T05:37:21;60183.56;;;-140.67;100.00
2294;BME280;1155;42.644;23.264;2023-05-24T05:39:59;60218.38;;;-140.67;100.00
2294;BME280;1155;42.644;23.264;2023-05-24T05:42:34;60191.75;;;-140.67;100.00
2294;BME280;1155;42.644;23.264;2023-05-24T05:45:20;60187.66;;;-140.67;100.00
2294;BME280;1155;42.644;23.264;2023-05-24T05:47:57;60171.28;;;-140.67;100.00
2294;BME280;1155;42.644;23.264;2023-05-24T05:50:32;60204.03;;;-140.67;100.00
2294;BME280;1155;42.644;23.264;2023-05-24T05:53:11;60197.91;;;-140.67;100.00
2294;BME280;1155;42.644;23.264;2023-05-24T05:55:55;60185.59;;;-140.67;100.00
2294;BME280;1155;42.644;23.264;2023-05-24T05:58:36;60204.03;;;-140.67;100.00
2294;BME280;1155;42.644;23.264;2023-05-24T06:01:10;60199.94;;;-140.67;100.00
2294;BME280;1155;42.644;23.264;2023-05-24T06:03:38;60191.75;;;-140.67;100.00
2294;BME280;1155;42.644;23.264;2023-05-24T06:06:12;60226.56;;;-140.67;100.00
2294;BME280;1155;42.644;23.264;2023-05-24T06:08:53;60238.84;;;-140.67;100.00
2294;BME280;1155;42.644;23.264;2023-05-24T06:11:26;60204.03;;;-140.67;100.00
2294;BME280;1155;42.644;23.264;2023-05-24T06:14:12;60195.84;;;-140.67;100.00
2294;BME280;1155;42.644;23.264;2023-05-24T06:16:56;60220.41;;;-140.67;100.00
2294;BME280;1155;42.644;23.264;2023-05-24T06:19:49;60214.28;;;-140.67;100.00
2294;BME280;1155;42.644;23.264;2023-05-24T06:22:35;60210.19;;;-140.67;97.13
2294;BME280;1155;42.644;23.264;2023-05-24T06:25:13;60208.13;;;-140.67;89.28
2294;BME280;1155;42.644;23.264;2023-05-24T06:27:56;60199.94;;;-140.67;85.15
2294;BME280;1155;42.644;23.264;2023-05-24T06:30:42;60218.38;;;-140.67;90.05
2294;BME280;1155;42.644;23.264;2023-05-24T06:33:22;60212.22;;;-140.67;76.96
2294;BME280;1155;42.644;23.264;2023-05-24T06:36:06;60240.91;;;-140.67;72.27
2294;BME280;1155;42.644;23.264;2023-05-24T06:38:42;60214.28;;;-140.67;55.21
2294;BME280;1155;42.644;23.264;2023-05-24T06:41:25;60224.53;;;-140.67;57.50
2294;BME280;1155;42.644;23.264;2023-05-24T06:43:55;60249.09;;;-140.67;53.45
2294;BME280;1155;42.644;23.264;2023-05-24T06:46:29;60249.09;;;-140.67;58.68
2294;BME280;1155;42.644;23.264;2023-05-24T06:49:03;60247.03;;;-140.67;56.77
2294;BME280;1155;42.644;23.264;2023-05-24T06:51:44;60224.53;;;-140.67;54.88
2294;BME280;1155;42.644;23.264;2023-05-24T06:54:14;60255.22;;;-140.67;58.80
2294;BME280;1155;42.644;23.264;2023-05-24T06:57:09;60236.81;;;-140.67;58.22
2294;BME280;1155;42.644;23.264;2023-05-24T06:59:44;60253.19;;;-140.67;56.17
2294;BME280;1155;42.644;23.264;2023-05-24T07:02:34;60245.00;;;-140.67;54.01
2294;BME280;1155;42.644;23.264;2023-05-24T07:05:26;60249.09;;;-140.67;50.22
2294;BME280;1155;42.644;23.264;2023-05-24T07:08:11;60242.94;;;-140.67;46.11
2294;BME280;1155;42.644;23.264;2023-05-24T07:10:54;60257.28;;;-140.67;45.69
2294;BME280;1155;42.644;23.264;2023-05-24T07:13:44;60261.38;;;-140.67;46.64
2294;BME280;1155;42.644;23.264;2023-05-24T07:16:22;60273.66;;;-140.67;44.28
2294;BME280;1155;42.644;23.264;2023-05-24T07:18:55;60255.22;;;-140.67;43.78
2294;BME280;1155;42.644;23.264;2023-05-24T07:21:40;60253.19;;;-140.67;43.04
2294;BME280;1155;42.644;23.264;2023-05-24T07:24:15;60267.53;;;-140.67;46.14
2294;BME280;1155;42.644;23.264;2023-05-24T07:26:48;60263.44;;;-140.67;42.99
2294;BME280;1155;42.644;23.264;2023-05-24T07:29:31;60281.84;;;-140.67;45.10
2294;BME280;1155;42.644;23.264;2023-05-24T07:32:10;60259.34;;;-140.67;43.50
2294;BME280;1155;42.644;23.264;2023-05-24T07:34:55;60257.28;;;-140.67;44.81
2294;BME280;1155;42.644;23.264;2023-05-24T07:37:37;60277.75;;;-140.67;41.64
2294;BME280;1155;42.644;23.264;2023-05-24T07:40:12;60265.47;;;-140.67;41.89
2294;BME280;1155;42.644;23.264;2023-05-24T07:42:55;60275.72;;;-140.67;40.03
2294;BME280;1155;42.644;23.264;2023-05-24T07:45:41;60247.03;;;-140.67;41.75
2294;BME280;1155;42.644;23.264;2023-05-24T07:48:23;60292.09;;;-140.67;40.09
2294;BME280;1155;42.644;23.264;2023-05-24T07:51:02;60271.63;;;-140.67;41.99
2294;BME280;1155;42.644;23.264;2023-05-24T07:53:41;60269.56;;;-140.67;47.38
2294;BME280;1155;42.644;23.264;2023-05-24T07:56:21;60265.47;;;-140.67;40.88
2294;BME280;1155;42.644;23.264;2023-05-24T08:02:13;60273.66;;;-140.67;41.37
2294;BME280;1155;42.644;23.264;2023-05-24T08:04:50;60285.94;;;-140.67;42.64
2294;BME280;1155;42.644;23.264;2023-05-24T08:07:32;60298.25;;;-140.67;39.37
2294;BME280;1155;42.644;23.264;2023-05-24T08:10:11;60283.91;;;-140.67;37.63
2294;BME280;1155;42.644;23.264;2023-05-24T08:12:51;60253.19;;;-140.67;38.59
2294;BME280;1155;42.644;23.264;2023-05-24T08:15:38;60273.66;;;-140.67;38.48
2294;BME280;1155;42.644;23.264;2023-05-24T08:18:22;60269.56;;;-140.67;39.42
2294;BME280;1155;42.644;23.264;2023-05-24T08:21:02;60269.56;;;-140.67;37.72
2294;BME280;1155;42.644;23.264;2023-05-24T08:23:31;60261.38;;;-140.67;43.94
2294;BME280;1155;42.644;23.264;2023-05-24T08:26:10;60296.19;;;-140.67;35.90
2294;BME280;1155;42.644;23.264;2023-05-24T08:28:46;60294.13;;;-140.67;35.80
2294;BME280;1155;42.644;23.264;2023-05-24T08:31:18;60288.00;;;-140.67;34.88
2294;BME280;1155;42.644;23.264;2023-05-24T08:33:58;60298.25;;;-140.67;31.98
2294;BME280;1155;42.644;23.264;2023-05-24T08:36:39;60294.13;;;-140.67;31.77
2294;BME280;1155;42.644;23.264;2023-05-24T08:39:16;60312.56;;;-140.67;32.50
2294;BME280;1155;42.644;23.264;2023-05-24T08:41:48;60292.09;;;-140.67;33.58
2294;BME280;1155;42.644;23.264;2023-05-24T08:44:24;60273.66;;;-140.67;31.41
2294;BME280;1155;42.644;23.264;2023-05-24T08:46:58;60277.75;;;-140.67;31.63
2294;BME280;1155;42.644;23.264;2023-05-24T08:49:50;60290.03;;;-140.67;35.43
2294;BME280;1155;42.644;23.264;2023-05-24T08:52:25;60290.03;;;-140.67;33.88
2294;BME280;1155;42.644;23.264;2023-05-24T08:55:04;60285.94;;;-140.67;34.20
2294;BME280;1155;42.644;23.264;2023-05-24T08:57:33;60310.53;;;-140.67;31.80
2294;BME280;1155;42.644;23.264;2023-05-24T09:00:05;60314.63;;;-140.67;30.74
2294;BME280;1155;42.644;23.264;2023-05-24T09:02:41;60294.13;;;-140.67;30.21
2294;BME280;1155;42.644;23.264;2023-05-24T09:05:31;60335.09;;;-140.67;31.53
2294;BME280;1155;42.644;23.264;2023-05-24T09:08:11;60306.44;;;-140.67;30.49
2294;BME280;1155;42.644;23.264;2023-05-24T09:10:53;60314.63;;;-140.67;28.83
2294;BME280;1155;42.644;23.264;2023-05-24T09:13:31;60292.09;;;-140.67;28.04
2294;BME280;1155;42.644;23.264;2023-05-24T09:16:06;60333.06;;;-140.67;27.69
2294;BME280;1155;42.644;23.264;2023-05-24T09:18:44;60324.84;;;-140.67;27.50
2294;BME280;1155;42.644;23.264;2023-05-24T09:21:31;60308.47;;;-140.67;27.55
2294;BME280;1155;42.644;23.264;2023-05-24T09:26:54;60318.72;;;-140.67;25.78
2294;BME280;1155;42.644;23.264;2023-05-24T09:29:41;60347.38;;;-140.67;29.86
2294;BME280;1155;42.644;23.264;2023-05-24T09:32:29;60335.09;;;-140.67;29.61
2294;BME280;1155;42.644;23.264;2023-05-24T09:35:14;60355.56;;;-140.67;27.83
2294;BME280;1155;42.644;23.264;2023-05-24T09:37:55;60314.63;;;-140.67;26.32
2294;BME280;1155;42.644;23.264;2023-05-24T09:40:26;60365.81;;;-140.67;28.61
2294;BME280;1155;42.644;23.264;2023-05-24T09:43:06;60382.19;;;-140.67;26.21
2294;BME280;1155;42.644;23.264;2023-05-24T09:45:40;60337.16;;;-140.67;24.60
2294;BME280;1155;42.644;23.264;2023-05-24T09:48:15;60339.19;;;-140.67;25.30
2294;BME280;1155;42.644;23.264;2023-05-24T09:50:57;60351.47;;;-140.67;24.92
2294;BME280;1155;42.644;23.264;2023-05-24T09:53:31;60382.19;;;-140.67;25.47
2294;BME280;1155;42.644;23.264;2023-05-24T09:56:03;60365.81;;;-140.67;26.05
2294;BME280;1155;42.644;23.264;2023-05-24T09:58:34;60376.06;;;-140.67;25.10
2294;BME280;1155;42.644;23.264;2023-05-24T10:01:09;60353.53;;;-140.67;25.01
2294;BME280;1155;42.644;23.264;2023-05-24T10:03:51;60345.34;;;-140.67;23.85
2294;BME280;1155;42.644;23.264;2023-05-24T10:06:19;60376.06;;;-140.67;26.89
2294;BME280;1155;42.644;23.264;2023-05-24T10:08:51;60380.16;;;-140.67;24.98
2294;BME280;1155;42.644;23.264;2023-05-24T10:11:27;60359.66;;;-140.67;23.86
2294;BME280;1155;42.644;23.264;2023-05-24T10:14:02;60376.06;;;-140.67;25.23
2294;BME280;1155;42.644;23.264;2023-05-24T10:16:49;60380.16;;;-140.67;25.76
2294;BME280;1155;42.644;23.264;2023-05-24T10:19:46;60412.91;;;-140.67;23.72
2294;BME280;1155;42.644;23.264;2023-05-24T10:22:28;60429.31;;;-140.67;24.21
2294;BME280;1155;42.644;23.264;2023-05-24T10:25:00;60455.91;;;-140.67;24.40
2294;BME280;1155;42.644;23.264;2023-05-24T10:27:30;60417.00;;;-140.67;23.04
2294;BME280;1155;42.644;23.264;2023-05-24T10:30:09;60423.16;;;-140.67;24.78
2294;BME280;1155;42.644;23.264;2023-05-24T10:32:39;60408.81;;;-140.67;20.59
2294;BME280;1155;42.644;23.264;2023-05-24T10:35:15;60402.69;;;-140.67;22.96
2294;BME280;1155;42.644;23.264;2023-05-24T10:37:48;60419.06;;;-140.67;22.05
2294;BME280;1155;42.644;23.264;2023-05-24T10:40:26;60421.09;;;-140.67;22.22
2294;BME280;1155;42.644;23.264;2023-05-24T10:42:56;60408.81;;;-140.67;22.51
2294;BME280;1155;42.644;23.264;2023-05-24T10:45:35;60455.91;;;-140.67;21.08
2294;BME280;1155;42.644;23.264;2023-05-24T10:48:08;60429.31;;;-140.67;22.42
2294;BME280;1155;42.644;23.264;2023-05-24T10:51:28;60431.34;;;-140.67;21.07
2294;BME280;1155;42.644;23.264;2023-05-24T10:54:11;60445.69;;;-140.67;19.92
2294;BME280;1155;42.644;23.264;2023-05-24T10:56:47;60462.06;;;-140.67;23.07
2294;BME280;1155;42.644;23.264;2023-05-24T10:59:24;60451.81;;;-140.67;20.44
2294;BME280;1155;42.644;23.264;2023-05-24T11:01:57;60417.00;;;-140.67;20.84
2294;BME280;1155;42.644;23.264;2023-05-24T11:04:26;60417.00;;;-140.67;20.82
2294;BME280;1155;42.644;23.264;2023-05-24T11:07:05;60406.78;;;-140.67;21.28
2294;BME280;1155;42.644;23.264;2023-05-24T11:09:39;60445.69;;;-140.67;21.37
2294;BME280;1155;42.644;23.264;2023-05-24T11:12:24;60474.34;;;-140.67;22.95
2294;BME280;1155;42.644;23.264;2023-05-24T11:15:12;60494.84;;;-140.67;21.70
2294;BME280;1155;42.644;23.264;2023-05-24T11:18:28;60511.22;;;-140.67;20.91
2294;BME280;1155;42.644;23.264;2023-05-24T11:21:02;60513.25;;;-140.67;20.09
2294;BME280;1155;42.644;23.264;2023-05-24T11:23:48;60482.53;;;-140.67;20.74
2294;BME280;1155;42.644;23.264;2023-05-24T11:26:18;60511.22;;;-140.67;19.32
2294;BME280;1155;42.644;23.264;2023-05-24T11:28:57;60523.50;;;-140.67;19.33
2294;BME280;1155;42.644;23.264;2023-05-24T11:31:30;60509.16;;;-140.67;20.60
2294;BME280;1155;42.644;23.264;2023-05-24T11:34:08;60531.69;;;-140.67;19.69
2294;BME280;1155;42.644;23.264;2023-05-24T11:36:41;60519.41;;;-140.67;20.79
2294;BME280;1155;42.644;23.264;2023-05-24T11:39:15;60496.88;;;-140.67;19.33
2294;BME280;1155;42.644;23.264;2023-05-24T11:41:58;60527.59;;;-140.67;18.79
2294;BME280;1155;42.644;23.264;2023-05-24T11:44:40;60539.88;;;-140.67;18.53
2294;BME280;1155;42.644;23.264;2023-05-24T11:47:20;60584.94;;;-140.67;19.17
2294;BME280;1155;42.644;23.264;2023-05-24T11:49:51;60670.97;;;-140.67;19.42
2294;BME280;1155;42.644;23.264;2023-05-24T11:52:22;60709.88;;;-140.67;18.54
2294;BME280;1155;42.644;23.264;2023-05-24T11:54:57;60718.06;;;-140.67;17.42
2294;BME280;1155;42.644;23.264;2023-05-24T11:57:35;60732.41;;;-140.67;17.09
2294;BME280;1155;42.644;23.264;2023-05-24T12:00:09;60777.44;;;-140.67;16.20
2294;BME280;1155;42.644;23.264;2023-05-24T12:02:59;60748.78;;;-140.67;16.60
2294;BME280;1155;42.644;23.264;2023-05-24T12:05:40;60851.19;;;-140.67;16.26
2294;BME280;1155;42.644;23.264;2023-05-24T12:08:11;60896.25;;;-140.67;15.75
2294;BME280;1155;42.644;23.264;2023-05-24T12:11:03;60855.28;;;-140.67;16.65
2294;BME280;1155;42.644;23.264;2023-05-24T12:13:34;60953.59;;;-140.67;14.95
2294;BME280;1155;42.644;23.264;2023-05-24T12:16:15;60914.69;;;-140.67;15.07
2294;BME280;1155;42.644;23.264;2023-05-24T12:18:58;60990.47;;;-140.67;14.13
2294;BME280;1155;42.644;23.264;2023-05-24T12:21:31;60963.81;;;-140.67;14.90
2294;BME280;1155;42.644;23.264;2023-05-24T12:24:17;60937.19;;;-140.67;14.91
2294;BME280;1155;42.644;23.264;2023-05-24T12:27:01;60918.78;;;-140.67;14.95
2294;BME280;1155;42.644;23.264;2023-05-24T12:29:38;60957.69;;;-140.67;14.08
2294;BME280;1155;42.644;23.264;2023-05-24T12:32:27;60988.41;;;-140.67;14.98
2294;BME280;1155;42.644;23.264;2023-05-24T12:35:07;61006.84;;;-140.67;14.43
2294;BME280;1155;42.644;23.264;2023-05-24T12:37:40;61092.88;;;-140.67;14.78
2294;BME280;1155;42.644;23.264;2023-05-24T12:40:17;61109.25;;;-140.67;14.32
2294;BME280;1155;42.644;23.264;2023-05-24T12:42:49;61117.44;;;-140.67;13.83
2294;BME280;1155;42.644;23.264;2023-05-24T12:45:18;61164.56;;;-140.67;13.74
2294;BME280;1155;42.644;23.264;2023-05-24T12:47:59;61174.78;;;-140.67;14.17
2294;BME280;1155;42.644;23.264;2023-05-24T12:50:33;61209.63;;;-140.67;12.40
2294;BME280;1155;42.644;23.264;2023-05-24T12:53:03;61199.38;;;-140.67;12.33
2294;BME280;1155;42.644;23.264;2023-05-24T12:55:34;61150.22;;;-140.67;12.91
2294;BME280;1155;42.644;23.264;2023-05-24T12:58:03;61244.44;;;-140.67;12.56
2294;BME280;1155;42.644;23.264;2023-05-24T13:00:34;61185.03;;;-140.67;13.59
2294;BME280;1155;42.644;23.264;2023-05-24T13:03:08;61172.75;;;-140.67;13.65
2294;BME280;1155;42.644;23.264;2023-05-24T13:05:37;61135.88;;;-140.67;13.34
2294;BME280;1155;42.644;23.264;2023-05-24T13:08:08;61076.47;;;-140.67;12.89
2294;BME280;1155;42.644;23.264;2023-05-24T13:10:38;61088.78;;;-140.67;13.34
2294;BME280;1155;42.644;23.264;2023-05-24T13:13:06;61017.09;;;-140.67;13.23
2294;BME280;1155;42.644;23.264;2023-05-24T13:18:38;61144.06;;;-140.67;13.19
2294;BME280;1155;42.644;23.264;2023-05-24T13:24:03;60992.50;;;-140.67;13.27
2294;BME280;1155;42.644;23.264;2023-05-24T13:26:54;61058.03;;;-140.67;13.67
2294;BME280;1155;42.644;23.264;2023-05-24T13:29:25;60988.41;;;-140.67;13.49
